Wendover Airport Wendover US
ICAO: KENV
IATA: ENV
Category: Medium
Scheduled Services: No

Elevation: 4237 ft
TransAlt. 18000 ft.

Airport Communications:
AWOS 3:135.075
CEDAR CITY RDO:112.3
CTAF/UNICOM:122.8

KENV Zoom In..

If you have problems with the map follow the link
https://www.worldairports.se/pages/airport.php?
ICAO=KENV

Runways:

(A) RW 08 length 8000 ft width 150 ft
---- / hdg 74

(B) RW 12 length 8001 ft width 100 ft
---- / hdg 119

(C) RW 26 length 8000 ft width 150 ft
---- / hdg 254

(D) RW 30 length 8001 ft width 100 ft
---- / hdg 299

Location; KENV
Day. 16 / Time. 02.56 Zulu
* Altimeter: 30.14
* Temperature: -02° c. -28.4°f.
* Wind from: 310° Speed 10 kn.
Dewpoint: -09° c.
Visibility: 10 Statute Miles.
Clouds: Few 7500 ft.

KENV 160256Z AUTO 31010KT 10SM FEW075 M02/M09 A3014 RMK AO2 SLP241 T10171089 53020 FZRANO


Wind From 310°
Speed 10 kn.

 
 
jpsmedia worldairports.se 2019   terms of use